Time;durP1;ratioP1;P1;durP2;ratioP2;P2;SDS_P1;SDS_P2;PMS_P1;PMS_P2;Temp;Humidity;BMP_temperature;BMP_pressure;BME280_temperature;BME280_humidity;BME280_pressure;Samples;Min_cycle;Max_cycle;Signal;HPM_P1;HPM_P2
2023/05/30 00:02:23;;;;;;;6.30;2.45;;;11.00;99.90;;;;;;5089646;28;20559;-70
2023/05/30 00:04:49;;;;;;;6.07;2.65;;;11.00;99.90;;;;;;5089711;28;20047;-70
2023/05/30 00:07:14;;;;;;;7.10;2.30;;;11.00;99.90;;;;;;5072452;28;20050;-70
2023/05/30 00:09:41;;;;;;;6.55;2.28;;;11.00;99.90;;;;;;5089393;28;20412;-70
2023/05/30 00:12:07;;;;;;;8.13;2.47;;;11.00;99.90;;;;;;5072699;28;20376;-70
2023/05/30 00:14:32;;;;;;;7.20;2.50;;;11.00;99.90;;;;;;5089436;28;20123;-69
2023/05/30 00:16:58;;;;;;;3.22;1.63;;;11.00;99.90;;;;;;5072222;28;20052;-69
2023/05/30 00:19:24;;;;;;;3.55;1.60;;;11.00;99.90;;;;;;5087785;28;20046;-69
2023/05/30 00:21:49;;;;;;;8.95;2.60;;;11.00;99.90;;;;;;5072348;28;20124;-69
2023/05/30 00:24:15;;;;;;;5.93;2.20;;;11.00;99.90;;;;;;5090676;28;20051;-69
2023/05/30 00:26:41;;;;;;;5.00;2.20;;;10.90;99.90;;;;;;5089595;28;20054;-69
2023/05/30 00:29:06;;;;;;;8.07;1.92;;;11.00;99.90;;;;;;5084387;28;20529;-70
2023/05/30 00:31:32;;;;;;;5.65;2.15;;;11.00;99.90;;;;;;5072508;28;20050;-69
2023/05/30 00:33:58;;;;;;;5.88;1.98;;;11.00;99.90;;;;;;5089519;28;20495;-69
2023/05/30 00:36:23;;;;;;;6.00;2.10;;;11.00;99.90;;;;;;5088656;28;20276;-69
2023/05/30 00:38:49;;;;;;;5.28;2.25;;;10.90;99.90;;;;;;5089168;28;20139;-69
2023/05/30 00:41:16;;;;;;;3.45;1.60;;;10.90;99.90;;;;;;5102722;28;20043;-69
2023/05/30 00:43:42;;;;;;;5.20;2.08;;;10.90;99.90;;;;;;5087554;28;20047;-69
2023/05/30 00:46:10;;;;;;;4.82;2.03;;;10.90;99.90;;;;;;5087375;28;20043;-69
2023/05/30 00:48:36;;;;;;;4.18;1.90;;;10.90;99.90;;;;;;5122799;28;20048;-69
2023/05/30 00:51:06;;;;;;;4.93;2.00;;;10.90;99.90;;;;;;5087397;28;20406;-69
2023/05/30 00:53:32;;;;;;;6.18;2.15;;;10.90;99.90;;;;;;5081288;28;20033;-69
2023/05/30 00:55:58;;;;;;;6.13;2.22;;;10.90;99.90;;;;;;5072026;28;20055;-69
2023/05/30 00:58:24;;;;;;;5.78;1.95;;;10.90;99.90;;;;;;5099566;28;20043;-69
2023/05/30 01:00:50;;;;;;;6.03;2.03;;;10.90;99.90;;;;;;5086549;28;20036;-69
2023/05/30 01:03:17;;;;;;;8.25;2.38;;;10.90;99.90;;;;;;5088866;28;20040;-69
2023/05/30 01:05:44;;;;;;;6.22;2.38;;;10.90;82.60;;;;;;5088699;28;20078;-69
2023/05/30 01:08:10;;;;;;;9.45;2.67;;;10.90;99.90;;;;;;5089157;28;20477;-69
2023/05/30 01:10:37;;;;;;;6.13;2.13;;;10.80;99.90;;;;;;5122729;28;20087;-69
2023/05/30 01:13:33;;;;;;;5.43;1.90;;;10.90;99.90;;;;;;5089256;28;20047;-69
2023/05/30 01:16:07;;;;;;;13.75;3.55;;;10.80;99.90;;;;;;5089284;28;20048;-69
2023/05/30 01:18:38;;;;;;;4.45;1.80;;;10.80;98.50;;;;;;5090552;28;20055;-69
2023/05/30 01:21:10;;;;;;;4.00;1.70;;;10.90;99.90;;;;;;5092516;28;20066;-71
2023/05/30 01:23:55;;;;;;;4.85;2.35;;;10.90;99.90;;;;;;5092661;28;20562;-71
2023/05/30 01:27:03;;;;;;;6.57;2.05;;;10.90;99.90;;;;;;5092622;28;20074;-69
2023/05/30 01:29:30;;;;;;;;;;;10.80;99.90;;;;;;5106963;28;20422;-70
2023/05/30 01:31:57;;;;;;;4.93;2.25;;;10.80;99.90;;;;;;5072377;28;19920;-69
2023/05/30 01:34:23;;;;;;;4.35;1.98;;;10.90;99.90;;;;;;5072548;28;20598;-69
2023/05/30 01:36:49;;;;;;;5.15;2.17;;;10.80;99.90;;;;;;5071790;28;20076;-70
2023/05/30 01:39:15;;;;;;;6.72;1.98;;;10.80;99.90;;;;;;5058476;28;20046;-70
2023/05/30 01:42:02;;;;;;;2.75;1.50;;;10.80;99.90;;;;;;5092216;28;20040;-69
2023/05/30 01:45:01;;;;;;;4.97;2.35;;;10.80;99.90;;;;;;5092534;28;20043;-69
2023/05/30 01:47:45;;;;;;;9.45;2.58;;;10.80;99.90;;;;;;5092056;28;20449;-69
2023/05/30 01:50:20;;;;;;;8.07;2.28;;;10.80;99.90;;;;;;5092267;28;20036;-69
2023/05/30 01:52:59;;;;;;;6.18;2.00;;;10.80;99.90;;;;;;5092432;28;20403;-69
2023/05/30 01:55:26;;;;;;;5.00;2.10;;;10.80;99.90;;;;;;5091839;28;20051;-69
2023/05/30 01:57:53;;;;;;;5.03;2.05;;;10.80;99.90;;;;;;5091801;28;20853;-69
2023/05/30 02:00:21;;;;;;;4.95;1.95;;;10.80;99.90;;;;;;5075242;28;20040;-69
2023/05/30 02:02:47;;;;;;;7.20;2.38;;;10.90;99.90;;;;;;5091707;28;20042;-69
2023/05/30 02:05:13;;;;;;;4.18;2.00;;;10.80;99.90;;;;;;5091489;28;20051;-69
2023/05/30 02:07:39;;;;;;;6.78;2.03;;;10.90;99.90;;;;;;5091975;28;20040;-69
2023/05/30 02:10:05;;;;;;;5.10;2.10;;;10.90;99.90;;;;;;5091851;28;20067;-69
2023/05/30 02:12:31;;;;;;;;;;;10.90;99.90;;;;;;5092341;28;20052;-69
2023/05/30 02:14:57;;;;;;;5.78;2.00;;;10.90;99.90;;;;;;5090506;28;19923;-69
2023/05/30 02:17:24;;;;;;;4.53;1.90;;;10.90;99.90;;;;;;5088836;28;20076;-70
2023/05/30 02:19:50;;;;;;;3.97;1.50;;;10.90;99.90;;;;;;5090324;28;20079;-69
2023/05/30 02:22:17;;;;;;;2.35;1.30;;;10.90;99.90;;;;;;5089457;28;20042;-69
2023/05/30 02:24:43;;;;;;;8.65;2.55;;;10.90;99.90;;;;;;5089418;28;20100;-69
2023/05/30 02:27:09;;;;;;;4.15;2.10;;;10.90;99.90;;;;;;5089664;28;20059;-69
2023/05/30 02:29:35;;;;;;;4.20;1.77;;;10.90;99.90;;;;;;5073498;28;20142;-69
2023/05/30 02:32:01;;;;;;;11.35;2.75;;;10.90;99.90;;;;;;5090600;28;20154;-69
2023/05/30 02:34:27;;;;;;;5.63;2.00;;;10.90;99.90;;;;;;5090016;28;20048;-70
2023/05/30 02:36:52;;;;;;;6.18;1.90;;;10.90;99.90;;;;;;5090973;28;20120;-69
2023/05/30 02:39:18;;;;;;;7.28;2.15;;;10.90;99.90;;;;;;5088336;28;20055;-69
2023/05/30 02:41:44;;;;;;;8.30;2.72;;;10.80;99.90;;;;;;5089321;28;20062;-69
2023/05/30 02:44:09;;;;;;;3.22;1.70;;;10.90;99.90;;;;;;5089954;28;20039;-69
2023/05/30 02:46:35;;;;;;;4.28;2.00;;;10.90;99.90;;;;;;5090383;28;20044;-69
2023/05/30 02:49:01;;;;;;;8.05;2.10;;;10.90;99.90;;;;;;5089897;28;20052;-69
2023/05/30 02:51:27;;;;;;;;;;;10.90;99.90;;;;;;5106105;28;20073;-70
2023/05/30 02:53:53;;;;;;;6.35;2.25;;;10.90;99.90;;;;;;5092245;28;19919;-70
2023/05/30 02:56:20;;;;;;;8.73;2.50;;;10.80;99.90;;;;;;5088609;28;20151;-72
2023/05/30 02:58:46;;;;;;;5.90;2.28;;;10.90;72.90;;;;;;5089094;28;20069;-69
2023/05/30 03:01:12;;;;;;;4.45;2.30;;;10.90;75.00;;;;;;5089049;28;20127;-69
2023/05/30 03:03:37;;;;;;;6.82;2.30;;;10.90;82.70;;;;;;5072457;28;20051;-69
2023/05/30 03:06:04;;;;;;;5.13;2.17;;;10.90;99.90;;;;;;5089875;28;20101;-69
2023/05/30 03:08:31;;;;;;;5.43;1.88;;;10.90;99.90;;;;;;5088335;28;20040;-69
2023/05/30 03:10:56;;;;;;;4.35;1.70;;;10.90;99.90;;;;;;5089309;28;20393;-69
2023/05/30 03:13:22;;;;;;;4.05;1.50;;;10.90;99.90;;;;;;5088413;28;20044;-69
2023/05/30 03:15:48;;;;;;;6.03;2.10;;;10.90;99.90;;;;;;5068625;28;20044;-69
2023/05/30 03:18:14;;;;;;;4.03;1.65;;;10.90;99.90;;;;;;5090696;28;20111;-69
2023/05/30 03:20:40;;;;;;;4.07;1.30;;;10.90;99.90;;;;;;5089423;28;20451;-69
2023/05/30 03:23:06;;;;;;;3.63;1.52;;;10.90;99.90;;;;;;5073406;28;20046;-69
2023/05/30 03:25:32;;;;;;;4.32;1.60;;;10.90;99.90;;;;;;5090013;28;20047;-69
2023/05/30 03:27:58;;;;;;;3.17;1.45;;;10.90;1.00;;;;;;5089849;28;20055;-70
2023/05/30 03:30:26;;;;;;;4.65;1.90;;;10.80;1.00;;;;;;5090372;28;20044;-69
2023/05/30 03:32:53;;;;;;;6.95;1.98;;;10.80;45.80;;;;;;5090123;28;20039;-69
2023/05/30 03:35:19;;;;;;;4.55;2.10;;;10.90;1.00;;;;;;5074581;28;20040;-69
2023/05/30 03:37:44;;;;;;;5.45;1.80;;;10.90;1.00;;;;;;5093044;28;20123;-69
2023/05/30 03:40:11;;;;;;;8.73;2.65;;;10.90;42.70;;;;;;5092672;28;20050;-70
2023/05/30 03:42:37;;;;;;;4.10;2.15;;;10.90;99.90;;;;;;5093121;28;20043;-69
2023/05/30 03:45:03;;;;;;;5.75;2.00;;;10.90;99.90;;;;;;5092901;28;20388;-69
2023/05/30 03:47:28;;;;;;;7.57;2.20;;;10.90;99.90;;;;;;5076030;28;20478;-69
2023/05/30 03:49:54;;;;;;;4.55;1.80;;;10.90;99.90;;;;;;5092880;28;20044;-70
2023/05/30 03:52:20;;;;;;;4.38;1.80;;;11.00;99.90;;;;;;5093377;28;20134;-69
2023/05/30 03:54:46;;;;;;;3.28;1.63;;;11.00;99.90;;;;;;5092331;28;20093;-69
2023/05/30 03:57:12;;;;;;;4.78;1.65;;;11.00;99.90;;;;;;5093011;28;20058;-69
2023/05/30 03:59:37;;;;;;;5.88;1.60;;;11.00;99.90;;;;;;5092816;28;20048;-69
2023/05/30 04:02:03;;;;;;;6.18;1.50;;;11.10;1.00;;;;;;5091143;28;20085;-71
2023/05/30 04:04:29;;;;;;;5.22;2.20;;;11.10;99.90;;;;;;5091602;28;20035;-69
2023/05/30 04:06:55;;;;;;;5.68;2.20;;;11.10;99.90;;;;;;5075747;28;20057;-70
2023/05/30 04:09:21;;;;;;;6.30;2.30;;;11.10;99.90;;;;;;5092712;28;20058;-70
2023/05/30 04:11:46;;;;;;;2.75;1.70;;;11.10;99.90;;;;;;5092931;28;20047;-70
2023/05/30 04:14:12;;;;;;;5.32;2.00;;;11.10;99.90;;;;;;5092738;28;20413;-70
2023/05/30 04:16:38;;;;;;;4.75;1.80;;;11.20;99.90;;;;;;5092599;28;20126;-70
2023/05/30 04:19:03;;;;;;;5.65;1.70;;;11.20;99.90;;;;;;5092185;28;20071;-70
2023/05/30 04:21:29;;;;;;;2.80;1.50;;;11.20;1.00;;;;;;5075342;28;20047;-70
2023/05/30 04:23:55;;;;;;;3.95;1.80;;;11.20;1.00;;;;;;5092569;28;20032;-70
2023/05/30 04:26:22;;;;;;;3.72;1.38;;;11.20;2.80;;;;;;5092576;28;20118;-70
2023/05/30 04:28:50;;;;;;;5.35;1.73;;;11.20;59.80;;;;;;5092674;27;20105;-76
2023/05/30 04:31:15;;;;;;;4.85;2.05;;;11.20;1.00;;;;;;5071092;28;20126;-70
2023/05/30 04:33:45;;;;;;;4.15;1.60;;;11.20;1.00;;;;;;5074630;28;20126;-70
2023/05/30 04:36:18;;;;;;;3.45;1.50;;;11.20;1.00;;;;;;5074712;28;20067;-70
2023/05/30 04:38:48;;;;;;;4.68;1.83;;;11.30;1.00;;;;;;5105621;28;20071;-71
2023/05/30 04:41:19;;;;;;;6.43;2.15;;;11.30;1.00;;;;;;5091453;28;20044;-70
2023/05/30 04:43:48;;;;;;;4.10;1.50;;;11.30;59.00;;;;;;5076447;28;20079;-70
2023/05/30 04:46:21;;;;;;;2.33;1.42;;;11.30;99.90;;;;;;5092573;28;20126;-70
2023/05/30 04:48:52;;;;;;;8.15;2.47;;;11.40;99.90;;;;;;5092341;28;20052;-70
2023/05/30 04:51:19;;;;;;;5.15;2.10;;;11.40;1.00;;;;;;5092351;28;20078;-71
2023/05/30 04:53:45;;;;;;;9.77;2.40;;;11.40;99.90;;;;;;5079672;28;20039;-71
2023/05/30 04:56:10;;;;;;;6.72;2.28;;;11.40;1.00;;;;;;5130492;27;20048;-71
2023/05/30 04:58:36;;;;;;;7.43;2.20;;;11.40;1.00;;;;;;5114951;28;20050;-71
2023/05/30 05:01:02;;;;;;;3.85;1.70;;;11.40;99.90;;;;;;5113415;28;20051;-70
2023/05/30 05:03:28;;;;;;;8.75;2.33;;;11.40;99.90;;;;;;5113495;28;20135;-71
2023/05/30 05:05:54;;;;;;;4.18;1.70;;;11.50;99.90;;;;;;5130444;27;20055;-71
2023/05/30 05:08:20;;;;;;;7.22;2.13;;;11.40;99.90;;;;;;5113201;28;20081;-70
2023/05/30 05:10:46;;;;;;;5.93;2.00;;;11.40;99.90;;;;;;5130361;27;20052;-70
2023/05/30 05:13:11;;;;;;;3.70;1.70;;;11.50;99.90;;;;;;5096441;28;20122;-70
2023/05/30 05:15:37;;;;;;;5.05;2.20;;;11.50;99.90;;;;;;5076835;28;20038;-71
2023/05/30 05:18:03;;;;;;;7.30;2.40;;;11.50;1.00;;;;;;5106881;28;20039;-70
2023/05/30 05:20:28;;;;;;;6.72;2.30;;;11.50;99.90;;;;;;5093654;28;20446;-70
2023/05/30 05:22:55;;;;;;;4.97;1.75;;;11.40;99.90;;;;;;5092967;28;20055;-71
2023/05/30 05:25:21;;;;;;;;;;;11.40;1.00;;;;;;5092514;28;20092;-71
2023/05/30 05:27:47;;;;;;;6.50;1.70;;;11.40;1.00;;;;;;5075709;28;19989;-72
2023/05/30 05:30:13;;;;;;;4.50;1.85;;;11.40;29.10;;;;;;5094993;28;20542;-71
2023/05/30 05:32:39;;;;;;;3.58;1.58;;;11.40;1.00;;;;;;5094032;28;20658;-72
2023/05/30 05:35:07;;;;;;;3.67;1.58;;;11.50;1.00;;;;;;5095388;28;20172;-72
2023/05/30 05:37:34;;;;;;;4.25;1.77;;;11.50;18.00;;;;;;5094596;28;20051;-71
2023/05/30 05:40:01;;;;;;;3.92;1.40;;;11.50;1.00;;;;;;5092861;28;20096;-70
2023/05/30 05:42:26;;;;;;;3.53;1.63;;;11.50;99.90;;;;;;5093146;28;20048;-71
2023/05/30 05:44:52;;;;;;;7.53;2.15;;;11.50;35.80;;;;;;5111880;28;20042;-71
2023/05/30 05:47:18;;;;;;;7.93;2.17;;;11.50;99.90;;;;;;5095516;28;20047;-71
2023/05/30 05:49:43;;;;;;;4.05;1.70;;;11.50;1.00;;;;;;5095657;28;20052;-70
2023/05/30 05:52:09;;;;;;;2.47;1.40;;;11.50;9.80;;;;;;5092212;28;20039;-69
2023/05/30 05:54:35;;;;;;;2.78;1.42;;;11.60;97.30;;;;;;5095549;28;20482;-70
2023/05/30 05:57:00;;;;;;;3.15;1.50;;;11.60;87.30;;;;;;5099774;28;20047;-70
2023/05/30 05:59:26;;;;;;;6.50;1.83;;;11.60;99.90;;;;;;5094715;28;20036;-70
2023/05/30 06:01:52;;;;;;;4.22;1.60;;;11.60;99.90;;;;;;5094040;28;20126;-70
2023/05/30 06:04:18;;;;;;;5.72;1.70;;;11.60;99.90;;;;;;5090506;28;20075;-70
2023/05/30 06:06:45;;;;;;;4.13;2.00;;;11.60;90.10;;;;;;5095041;28;20128;-69
2023/05/30 06:09:10;;;;;;;5.00;1.60;;;11.60;99.90;;;;;;5095264;28;20517;-70
2023/05/30 06:11:36;;;;;;;5.07;1.98;;;11.60;99.90;;;;;;5093093;28;20104;-71
2023/05/30 06:14:02;;;;;;;5.47;1.70;;;11.60;1.00;;;;;;5092011;28;20168;-71
2023/05/30 06:16:27;;;;;;;4.30;1.42;;;11.60;53.90;;;;;;5077614;28;20088;-71
2023/05/30 06:18:53;;;;;;;4.28;1.55;;;11.70;1.00;;;;;;5094864;28;20035;-71
2023/05/30 06:21:18;;;;;;;3.65;1.40;;;11.70;1.00;;;;;;5094834;28;20198;-70
2023/05/30 06:23:44;;;;;;;2.85;1.25;;;11.80;99.90;;;;;;5112949;28;20052;-70
2023/05/30 06:26:10;;;;;;;6.03;1.60;;;11.80;16.60;;;;;;5091143;28;20048;-70
2023/05/30 06:28:36;;;;;;;3.47;1.30;;;11.80;99.90;;;;;;5104102;27;20067;-71
2023/05/30 06:31:01;;;;;;;3.40;1.23;;;11.90;1.00;;;;;;5079756;28;20048;-71
2023/05/30 06:33:28;;;;;;;3.35;1.30;;;11.80;75.70;;;;;;5091251;28;20042;-71
2023/05/30 06:35:53;;;;;;;;;;;11.90;1.00;;;;;;5126528;27;20469;-70
2023/05/30 06:38:20;;;;;;;5.28;1.63;;;11.90;99.90;;;;;;5091368;28;19916;-70
2023/05/30 06:40:46;;;;;;;4.28;1.30;;;11.90;4.20;;;;;;5124478;27;20036;-71
2023/05/30 06:43:12;;;;;;;3.05;1.20;;;11.80;66.70;;;;;;5124640;27;20035;-70
2023/05/30 06:45:38;;;;;;;2.92;1.20;;;11.80;99.90;;;;;;5092935;28;20054;-70
2023/05/30 06:48:04;;;;;;;4.32;1.60;;;11.80;99.90;;;;;;5110394;28;20177;-71
2023/05/30 06:50:29;;;;;;;4.32;1.95;;;11.80;1.00;;;;;;5093343;28;20036;-70
2023/05/30 06:52:55;;;;;;;4.00;1.55;;;11.80;91.90;;;;;;5092468;28;20150;-70
2023/05/30 06:55:21;;;;;;;3.28;1.35;;;11.80;1.00;;;;;;5075727;28;20035;-70
2023/05/30 06:57:48;;;;;;;3.33;1.40;;;11.80;22.60;;;;;;5092246;28;20039;-69
2023/05/30 07:00:15;;;;;;;2.53;1.20;;;11.90;61.40;;;;;;5075045;28;20398;-70
2023/05/30 07:02:40;;;;;;;2.45;1.10;;;11.90;55.20;;;;;;5125798;27;20076;-70
2023/05/30 07:05:06;;;;;;;6.40;1.50;;;12.00;95.60;;;;;;5123673;27;20554;-70
2023/05/30 07:07:32;;;;;;;2.03;1.10;;;11.90;1.00;;;;;;5093769;28;20043;-70
2023/05/30 07:09:58;;;;;;;2.90;1.20;;;12.00;35.40;;;;;;5092329;28;20047;-70
2023/05/30 07:12:24;;;;;;;4.00;1.30;;;12.00;97.70;;;;;;5093750;28;20039;-70
2023/05/30 07:14:50;;;;;;;2.10;1.20;;;12.00;35.10;;;;;;5109239;28;20295;-70
2023/05/30 07:17:15;;;;;;;2.10;1.20;;;12.00;67.90;;;;;;5091258;28;20054;-70
2023/05/30 07:19:41;;;;;;;3.75;1.30;;;12.00;83.40;;;;;;5092712;28;20047;-71
2023/05/30 07:22:07;;;;;;;3.50;1.42;;;12.00;99.90;;;;;;5092474;28;20032;-71
2023/05/30 07:24:32;;;;;;;2.53;1.23;;;12.00;99.90;;;;;;5088851;28;20471;-70
2023/05/30 07:26:58;;;;;;;3.38;1.10;;;12.00;99.90;;;;;;5058528;28;20043;-71
2023/05/30 07:29:24;;;;;;;2.72;1.27;;;11.90;99.90;;;;;;5087221;28;20098;-70
2023/05/30 07:31:50;;;;;;;2.88;1.25;;;12.00;99.90;;;;;;5095089;28;20043;-70
2023/05/30 07:34:15;;;;;;;2.72;1.05;;;12.00;99.90;;;;;;5093362;28;20408;-70
2023/05/30 07:36:41;;;;;;;2.20;1.30;;;12.00;99.90;;;;;;5089593;28;20056;-70
2023/05/30 07:39:07;;;;;;;1.98;0.90;;;12.00;99.90;;;;;;5089761;28;20119;-70
2023/05/30 07:41:32;;;;;;;3.38;1.13;;;12.20;99.90;;;;;;5089632;28;20139;-70
2023/05/30 07:43:58;;;;;;;2.08;0.77;;;12.30;99.90;;;;;;5073195;28;20089;-70
2023/05/30 07:46:24;;;;;;;2.63;1.00;;;12.30;99.90;;;;;;5089725;28;20395;-70
2023/05/30 07:48:49;;;;;;;2.38;1.00;;;12.40;99.90;;;;;;5089674;28;20052;-74
2023/05/30 07:51:17;;;;;;;2.22;1.02;;;12.40;81.40;;;;;;5089332;28;20093;-70
2023/05/30 07:53:43;;;;;;;3.15;1.00;;;12.30;99.90;;;;;;5088848;28;20048;-70
2023/05/30 07:56:09;;;;;;;1.52;0.90;;;12.30;99.90;;;;;;5072817;28;20340;-70
2023/05/30 07:58:34;;;;;;;1.95;1.00;;;12.30;99.90;;;;;;5089124;28;20040;-70
2023/05/30 08:01:00;;;;;;;1.40;0.88;;;12.40;99.90;;;;;;5089382;28;20098;-70
2023/05/30 08:03:26;;;;;;;1.65;0.90;;;12.50;99.90;;;;;;5089269;28;20047;-70
2023/05/30 08:05:52;;;;;;;4.00;1.30;;;12.60;67.60;;;;;;5072235;28;20043;-70
2023/05/30 08:08:18;;;;;;;2.00;1.10;;;12.70;1.00;;;;;;5089176;28;20132;-70
2023/05/30 08:10:44;;;;;;;2.28;1.00;;;12.70;1.00;;;;;;5088922;28;20043;-70
2023/05/30 08:13:09;;;;;;;4.05;1.23;;;12.50;1.00;;;;;;5071665;28;20096;-69
2023/05/30 08:15:35;;;;;;;1.85;0.90;;;12.50;1.00;;;;;;5088795;28;20039;-70
2023/05/30 08:18:02;;;;;;;2.10;1.15;;;12.50;77.00;;;;;;5087777;28;20040;-70
2023/05/30 08:20:29;;;;;;;2.97;1.17;;;12.50;71.40;;;;;;5071669;28;20356;-70
2023/05/30 08:22:55;;;;;;;2.83;1.42;;;12.50;1.00;;;;;;5072809;28;20101;-71
2023/05/30 08:25:25;;;;;;;2.88;1.10;;;12.50;1.00;;;;;;5088774;28;20407;-71
2023/05/30 08:27:54;;;;;;;3.15;1.20;;;12.50;4.30;;;;;;5088925;28;20441;-70
2023/05/30 08:30:20;;;;;;;3.95;1.08;;;12.50;24.70;;;;;;5071942;28;20044;-70
2023/05/30 08:32:45;;;;;;;2.42;0.88;;;12.60;92.00;;;;;;5088572;28;20043;-70
2023/05/30 08:35:13;;;;;;;1.85;1.00;;;12.90;99.90;;;;;;5089662;28;20094;-70
2023/05/30 08:37:40;;;;;;;1.30;0.90;;;13.30;52.10;;;;;;5090794;28;20136;-70
2023/05/30 08:40:10;;;;;;;1.77;0.63;;;13.60;99.90;;;;;;5091466;28;20083;-69
2023/05/30 08:42:37;;;;;;;2.17;0.80;;;14.00;1.00;;;;;;5091730;28;20051;-69
2023/05/30 08:45:04;;;;;;;2.33;0.80;;;14.20;99.90;;;;;;5075906;28;20043;-70
2023/05/30 08:47:31;;;;;;;1.25;0.80;;;14.30;99.90;;;;;;5092610;28;20122;-69
2023/05/30 08:50:02;;;;;;;1.33;0.60;;;14.20;99.90;;;;;;5092129;28;20044;-70
2023/05/30 08:52:29;;;;;;;1.00;0.65;;;14.10;99.90;;;;;;5075473;28;20091;-70
2023/05/30 08:55:27;;;;;;;1.20;0.50;;;14.00;24.20;;;;;;5092117;28;20112;-70
2023/05/30 08:58:08;;;;;;;0.85;0.30;;;14.00;99.90;;;;;;5057776;28;20060;-70
2023/05/30 09:00:35;;;;;;;0.82;0.50;;;13.80;1.00;;;;;;5092275;28;20049;-70
2023/05/30 09:03:05;;;;;;;1.73;0.50;;;13.80;99.90;;;;;;5092096;28;20043;-70
2023/05/30 09:05:34;;;;;;;1.38;0.40;;;13.90;1.00;;;;;;5092049;28;20054;-70
2023/05/30 09:08:01;;;;;;;1.35;0.50;;;13.90;99.90;;;;;;5122218;28;20059;-69
2023/05/30 09:10:28;;;;;;;1.35;0.50;;;14.00;99.90;;;;;;5091759;28;20047;-71
2023/05/30 09:12:55;;;;;;;1.08;0.50;;;14.00;1.00;;;;;;5092252;28;20424;-70
2023/05/30 09:15:20;;;;;;;0.75;0.40;;;14.00;99.90;;;;;;5091567;28;20055;-70
2023/05/30 09:17:46;;;;;;;0.30;0.30;;;13.80;99.90;;;;;;5090752;28;20056;-70
2023/05/30 09:20:18;;;;;;;1.27;0.60;;;13.90;99.90;;;;;;5075384;28;20051;-70
2023/05/30 09:22:47;;;;;;;0.57;0.30;;;14.10;1.00;;;;;;5091609;28;20050;-70
2023/05/30 09:25:17;;;;;;;0.43;0.20;;;14.00;1.00;;;;;;5091133;28;20027;-70
2023/05/30 09:27:50;;;;;;;0.30;0.22;;;13.80;99.90;;;;;;5089150;28;20050;-70
2023/05/30 09:30:16;;;;;;;0.80;0.30;;;13.70;99.90;;;;;;5098158;28;20566;-70
2023/05/30 09:32:58;;;;;;;1.02;0.50;;;13.40;39.00;;;;;;5075203;28;20507;-70
2023/05/30 09:35:25;;;;;;;0.73;0.32;;;13.20;72.60;;;;;;5091423;28;20043;-70
2023/05/30 09:37:51;;;;;;;0.45;0.30;;;13.20;99.90;;;;;;5091849;28;20134;-70
2023/05/30 09:40:17;;;;;;;0.85;0.50;;;13.30;99.90;;;;;;5059023;28;20096;-70
2023/05/30 09:42:48;;;;;;;0.75;0.38;;;13.30;99.90;;;;;;5088901;28;20064;-70
2023/05/30 09:45:16;;;;;;;0.90;0.38;;;13.10;99.90;;;;;;5094911;28;20102;-71
2023/05/30 09:47:46;;;;;;;0.82;0.40;;;13.10;99.90;;;;;;5093834;28;20047;-71
2023/05/30 09:50:23;;;;;;;0.55;0.55;;;13.00;99.90;;;;;;5109464;27;20043;-71
2023/05/30 09:52:51;;;;;;;0.40;0.40;;;13.00;99.90;;;;;;5094151;28;20051;-71
2023/05/30 09:55:19;;;;;;;0.77;0.40;;;13.00;99.90;;;;;;5095059;28;20097;-70
2023/05/30 09:57:52;;;;;;;1.98;0.50;;;13.10;78.80;;;;;;5078317;28;20039;-70
2023/05/30 10:00:25;;;;;;;0.98;0.57;;;13.20;93.60;;;;;;5077999;28;20118;-70
2023/05/30 10:02:56;;;;;;;1.38;0.50;;;13.40;57.70;;;;;;5077081;28;20044;-71
2023/05/30 10:05:27;;;;;;;1.33;0.63;;;13.60;1.00;;;;;;5094805;28;20043;-71
2023/05/30 10:07:54;;;;;;;0.85;0.57;;;13.90;99.90;;;;;;5078235;28;20133;-71
2023/05/30 10:10:20;;;;;;;0.85;0.40;;;14.30;39.80;;;;;;5078649;28;20494;-71
2023/05/30 10:12:51;;;;;;;0.52;0.40;;;14.30;99.90;;;;;;5095022;28;20049;-71
2023/05/30 10:15:18;;;;;;;0.35;0.35;;;14.10;99.90;;;;;;5094916;28;20456;-71
2023/05/30 10:18:04;;;;;;;1.50;0.40;;;13.90;99.90;;;;;;5094793;28;20052;-71
2023/05/30 10:20:31;;;;;;;0.85;0.40;;;13.70;1.00;;;;;;5094690;28;20036;-70
2023/05/30 10:22:59;;;;;;;0.70;0.50;;;13.70;99.90;;;;;;5094850;28;20138;-71
2023/05/30 10:25:28;;;;;;;0.60;0.50;;;13.60;99.90;;;;;;5094707;28;20036;-71
2023/05/30 10:27:56;;;;;;;1.30;0.60;;;13.60;99.90;;;;;;5094626;28;20050;-71
2023/05/30 10:30:30;;;;;;;0.45;0.30;;;13.70;99.90;;;;;;5094756;28;20233;-70
2023/05/30 10:33:04;;;;;;;0.65;0.40;;;13.80;30.30;;;;;;5094728;28;20376;-71
2023/05/30 10:35:32;;;;;;;0.43;0.30;;;13.90;1.00;;;;;;5094750;28;20130;-71
2023/05/30 10:37:59;;;;;;;0.98;0.60;;;14.10;1.00;;;;;;5094281;28;20055;-71
2023/05/30 10:40:40;;;;;;;0.70;0.35;;;14.20;99.90;;;;;;5094106;28;20407;-71
2023/05/30 10:43:17;;;;;;;1.33;0.52;;;14.40;99.90;;;;;;5094444;28;20439;-71
2023/05/30 10:46:10;;;;;;;0.40;0.40;;;14.50;99.90;;;;;;5092518;28;20035;-73
2023/05/30 10:48:58;;;;;;;0.40;0.30;;;14.50;99.90;;;;;;5074541;28;20044;-71
2023/05/30 10:51:24;;;;;;;1.00;0.40;;;14.50;99.90;;;;;;5092758;28;20234;-71
2023/05/30 10:53:50;;;;;;;1.33;0.60;;;14.60;99.90;;;;;;5112725;28;20186;-71
2023/05/30 10:56:35;;;;;;;1.80;0.65;;;14.60;99.90;;;;;;5076866;28;20551;-71
2023/05/30 10:59:02;;;;;;;1.98;0.60;;;14.70;99.90;;;;;;5094116;28;20043;-72
2023/05/30 11:01:31;;;;;;;1.63;0.90;;;14.60;99.90;;;;;;5091901;28;20039;-72
2023/05/30 11:03:57;;;;;;;0.85;0.50;;;14.40;43.30;;;;;;5097362;28;20035;-72
2023/05/30 11:06:28;;;;;;;0.70;0.60;;;14.30;99.90;;;;;;5089799;28;20096;-72
2023/05/30 11:09:03;;;;;;;0.73;0.50;;;14.20;99.90;;;;;;5109992;28;20118;-72
2023/05/30 11:11:56;;;;;;;0.90;0.77;;;14.20;99.90;;;;;;5124899;27;20043;-72
2023/05/30 11:14:33;;;;;;;2.25;0.70;;;14.10;99.90;;;;;;5065198;28;20134;-71
2023/05/30 11:17:07;;;;;;;0.98;0.60;;;14.10;99.90;;;;;;5079237;27;20051;-72
2023/05/30 11:19:40;;;;;;;1.23;0.52;;;14.10;99.90;;;;;;5093412;28;20058;-72
2023/05/30 11:22:17;;;;;;;0.57;0.57;;;14.10;99.90;;;;;;5092628;28;20043;-72
2023/05/30 11:24:46;;;;;;;0.70;0.50;;;14.20;99.90;;;;;;5093170;28;20134;-72
2023/05/30 11:27:16;;;;;;;1.05;0.50;;;14.50;99.90;;;;;;5092866;28;20094;-72
2023/05/30 11:29:49;;;;;;;0.60;0.60;;;14.70;99.90;;;;;;5109814;27;20068;-72
2023/05/30 11:32:20;;;;;;;1.20;0.75;;;14.90;97.40;;;;;;5093726;28;20043;-72
2023/05/30 11:34:47;;;;;;;0.90;0.65;;;14.90;92.10;;;;;;5092629;28;20111;-72
2023/05/30 11:37:12;;;;;;;0.80;0.57;;;15.00;19.50;;;;;;5092649;28;20051;-72
2023/05/30 11:39:38;;;;;;;0.50;0.50;;;15.00;1.00;;;;;;5091028;28;20047;-71
2023/05/30 11:42:05;;;;;;;0.75;0.60;;;14.80;1.00;;;;;;5074877;28;20070;-72
2023/05/30 11:44:32;;;;;;;1.30;0.60;;;14.70;1.00;;;;;;5097424;28;20506;-72
2023/05/30 11:47:01;;;;;;;;;;;14.70;26.00;;;;;;5088859;27;20502;-72
2023/05/30 11:49:27;;;;;;;0.60;0.60;;;14.90;67.50;;;;;;5090689;28;20352;-71
2023/05/30 11:51:53;;;;;;;1.00;0.70;;;15.10;1.00;;;;;;5092154;28;20058;-70
2023/05/30 11:54:20;;;;;;;0.85;0.80;;;15.10;1.00;;;;;;5069855;28;20398;-70
2023/05/30 11:56:47;;;;;;;0.88;0.80;;;15.10;1.00;;;;;;5124802;27;20047;-71
2023/05/30 11:59:20;;;;;;;1.00;0.70;;;14.90;1.00;;;;;;5113689;27;20043;-71
2023/05/30 12:01:58;;;;;;;0.60;0.60;;;14.80;1.00;;;;;;5104359;28;20494;-71
2023/05/30 12:04:26;;;;;;;0.65;0.60;;;14.90;37.80;;;;;;5090474;28;20050;-72
2023/05/30 12:06:56;;;;;;;0.68;0.60;;;14.90;1.00;;;;;;5106371;28;20410;-70
2023/05/30 12:09:22;;;;;;;0.43;0.43;;;14.90;1.00;;;;;;5090059;27;20051;-70
2023/05/30 12:11:53;;;;;;;2.15;0.90;;;14.80;1.00;;;;;;5094459;28;20031;-70
2023/05/30 12:14:18;;;;;;;0.88;0.70;;;14.80;37.90;;;;;;5090075;28;20103;-70
2023/05/30 12:16:44;;;;;;;0.65;0.45;;;14.70;21.30;;;;;;5093120;28;20047;-72
2023/05/30 12:19:10;;;;;;;1.00;0.77;;;14.90;99.90;;;;;;5090883;28;20044;-71
2023/05/30 12:21:36;;;;;;;0.50;0.50;;;15.00;99.90;;;;;;5091481;28;20040;-71
2023/05/30 12:24:09;;;;;;;0.77;0.60;;;15.20;25.60;;;;;;5110987;27;20062;-71
2023/05/30 12:26:35;;;;;;;0.73;0.70;;;15.40;1.00;;;;;;5105380;28;20052;-71
2023/05/30 12:29:07;;;;;;;0.50;0.50;;;16.00;65.50;;;;;;5091448;28;20050;-71
2023/05/30 12:31:33;;;;;;;2.70;0.60;;;16.20;99.90;;;;;;5074748;28;20040;-71
2023/05/30 12:34:00;;;;;;;1.05;0.70;;;16.20;99.90;;;;;;5075964;28;20051;-71
2023/05/30 12:36:26;;;;;;;0.73;0.60;;;16.10;99.90;;;;;;5092379;28;20087;-71
2023/05/30 12:38:55;;;;;;;1.33;0.60;;;16.00;99.90;;;;;;5076035;28;20082;-71
2023/05/30 12:41:31;;;;;;;0.80;0.60;;;16.00;99.90;;;;;;5090534;28;20048;-71
2023/05/30 12:43:58;;;;;;;0.87;0.60;;;15.80;99.90;;;;;;5111167;28;20463;-77
2023/05/30 12:46:27;;;;;;;0.75;0.75;;;15.70;1.00;;;;;;5092860;28;20563;-78
2023/05/30 12:48:52;;;;;;;1.08;0.80;;;15.60;1.00;;;;;;5092786;28;20122;-78
2023/05/30 12:51:18;;;;;;;1.25;0.77;;;15.30;99.90;;;;;;5092856;28;20147;-78
2023/05/30 12:53:44;;;;;;;2.20;0.73;;;15.20;1.00;;;;;;5092362;28;20052;-77
2023/05/30 12:56:13;;;;;;;2.17;0.90;;;15.10;66.40;;;;;;5093369;28;20044;-76